Time;durP1;ratioP1;P1;durP2;ratioP2;P2;SDS_P1;SDS_P2;PMS_P1;PMS_P2;Temp;Humidity;BMP_temperature;BMP_pressure;BME280_temperature;BME280_humidity;BME280_pressure;Samples;Min_cycle;Max_cycle;Signal;HPM_P1;HPM_P2
2022/08/15 00:00:46;;;;;;;6.18;5.50;;;23.70;61.50;;;;;;5074814;28;20024;-48
2022/08/15 00:03:27;;;;;;;6.50;5.25;;;23.70;61.50;;;;;;5075356;28;20039;-46
2022/08/15 00:05:58;;;;;;;11.10;5.63;;;23.60;62.00;;;;;;5076995;28;20028;-47
2022/08/15 00:08:26;;;;;;;8.60;5.30;;;23.40;62.40;;;;;;5076583;28;20025;-47
2022/08/15 00:10:53;;;;;;;6.75;5.47;;;23.30;62.80;;;;;;5076262;28;20469;-46
2022/08/15 00:13:25;;;;;;;10.25;6.30;;;23.30;63.00;;;;;;5076327;28;20067;-46
2022/08/15 00:15:54;;;;;;;7.05;5.57;;;23.30;63.10;;;;;;5076028;28;20033;-46
2022/08/15 00:18:23;;;;;;;8.68;5.57;;;23.30;63.20;;;;;;5076027;28;20025;-46
2022/08/15 00:20:49;;;;;;;9.13;6.43;;;23.30;63.50;;;;;;5076034;28;20012;-46
2022/08/15 00:23:17;;;;;;;7.40;6.00;;;23.30;63.60;;;;;;5076138;28;20028;-47
2022/08/15 00:25:48;;;;;;;7.88;6.22;;;23.30;63.70;;;;;;5075911;28;20028;-46
2022/08/15 00:28:14;;;;;;;7.60;5.82;;;23.30;63.60;;;;;;5076266;28;20052;-49
2022/08/15 00:30:41;;;;;;;10.57;6.35;;;23.30;63.80;;;;;;5076004;28;20464;-46
2022/08/15 00:33:07;;;;;;;6.03;5.20;;;23.20;63.80;;;;;;5075854;28;20031;-47
2022/08/15 00:35:36;;;;;;;10.82;5.70;;;23.20;63.80;;;;;;5075907;28;20059;-46
2022/08/15 00:38:34;;;;;;;6.38;5.50;;;23.20;63.80;;;;;;5074313;28;20040;-47
2022/08/15 00:43:53;;;;;;;7.60;6.25;;;23.10;64.60;;;;;;5076065;28;20027;-46
2022/08/15 00:46:20;;;;;;;6.80;5.80;;;23.00;65.20;;;;;;5075586;28;20081;-47
2022/08/15 00:48:46;;;;;;;8.20;6.57;;;23.00;65.30;;;;;;5075398;28;20038;-46
2022/08/15 00:51:34;;;;;;;8.80;5.82;;;23.00;65.00;;;;;;5075370;28;20025;-47
2022/08/15 00:54:08;;;;;;;6.30;5.47;;;23.00;65.00;;;;;;5074007;28;20032;-50
2022/08/15 00:56:51;;;;;;;8.38;6.00;;;23.10;64.90;;;;;;5075563;28;20021;-46
2022/08/15 00:59:23;;;;;;;7.97;5.30;;;23.10;64.90;;;;;;5075656;28;20052;-46
2022/08/15 01:01:49;;;;;;;8.65;5.72;;;23.00;65.00;;;;;;5074297;28;20032;-47
2022/08/15 01:04:15;;;;;;;8.50;6.18;;;23.00;65.10;;;;;;5075183;28;20040;-48
2022/08/15 01:06:45;;;;;;;16.67;6.47;;;23.00;65.10;;;;;;5075144;28;20035;-46
2022/08/15 01:09:11;;;;;;;10.32;7.00;;;23.00;65.10;;;;;;5075341;28;20036;-47
2022/08/15 01:11:47;;;;;;;8.10;5.97;;;23.00;65.10;;;;;;5074910;28;20032;-49
2022/08/15 01:14:13;;;;;;;7.15;6.43;;;23.00;65.10;;;;;;5074672;28;20048;-48
2022/08/15 01:16:40;;;;;;;9.93;6.93;;;23.10;65.00;;;;;;5075246;28;20032;-48
2022/08/15 01:19:19;;;;;;;11.02;6.75;;;23.10;65.00;;;;;;5075537;28;20048;-46
2022/08/15 01:22:23;;;;;;;9.23;5.90;;;23.10;64.90;;;;;;5075810;28;20044;-47
2022/08/15 01:25:10;;;;;;;8.77;5.75;;;22.90;65.90;;;;;;5066358;28;20082;-49
2022/08/15 01:27:47;;;;;;;9.82;6.45;;;22.70;67.10;;;;;;5074736;28;20074;-47
2022/08/15 01:30:17;;;;;;;8.50;6.18;;;22.80;66.80;;;;;;5074218;28;20029;-51
2022/08/15 01:32:43;;;;;;;7.25;5.80;;;22.80;66.50;;;;;;5073669;28;20429;-45
2022/08/15 01:35:10;;;;;;;7.75;6.15;;;22.90;66.10;;;;;;5074849;28;20028;-46
2022/08/15 01:37:38;;;;;;;7.30;6.00;;;23.00;65.80;;;;;;5074756;28;20025;-48
2022/08/15 01:40:12;;;;;;;7.85;6.00;;;23.10;65.70;;;;;;5073263;28;20040;-47
2022/08/15 01:42:47;;;;;;;9.88;6.22;;;23.00;65.80;;;;;;5074392;28;20095;-47
2022/08/15 01:45:19;;;;;;;9.93;5.88;;;23.00;65.80;;;;;;5074622;28;20021;-45
2022/08/15 01:48:05;;;;;;;7.75;6.35;;;22.90;66.30;;;;;;5074389;28;20489;-47
2022/08/15 01:50:39;;;;;;;7.43;6.18;;;22.90;66.40;;;;;;5074344;28;20400;-48
2022/08/15 01:53:20;;;;;;;9.13;6.30;;;22.80;67.00;;;;;;5074187;28;20024;-47
2022/08/15 01:55:58;;;;;;;8.05;6.55;;;22.80;66.70;;;;;;5074587;28;20027;-50
2022/08/15 01:58:25;;;;;;;7.28;6.18;;;22.80;67.00;;;;;;5074846;28;20039;-48
2022/08/15 02:01:06;;;;;;;11.38;7.00;;;22.80;66.70;;;;;;5074183;28;20082;-47
2022/08/15 02:03:35;;;;;;;8.90;6.68;;;22.80;66.60;;;;;;5074210;28;20048;-45
2022/08/15 02:06:09;;;;;;;9.48;6.18;;;22.80;66.50;;;;;;5073937;28;20495;-47
2022/08/15 02:08:36;;;;;;;12.27;6.65;;;22.80;66.40;;;;;;5074324;28;20063;-47
2022/08/15 02:11:07;;;;;;;7.00;6.05;;;22.80;66.40;;;;;;5074176;28;20039;-49
2022/08/15 02:13:32;;;;;;;7.53;6.50;;;22.80;66.60;;;;;;5073559;28;20102;-51
2022/08/15 02:16:00;;;;;;;7.95;6.40;;;22.70;66.80;;;;;;5073698;28;20017;-48
2022/08/15 02:18:27;;;;;;;14.00;7.00;;;22.70;66.70;;;;;;5073909;28;20472;-47
2022/08/15 02:20:54;;;;;;;10.80;6.63;;;22.70;67.00;;;;;;5073600;28;20032;-46
2022/08/15 02:23:20;;;;;;;12.65;7.22;;;22.70;67.00;;;;;;5071751;28;20087;-47
2022/08/15 02:25:47;;;;;;;9.98;6.00;;;22.70;67.00;;;;;;5073623;28;20112;-46
2022/08/15 02:28:13;;;;;;;9.70;7.28;;;22.60;67.20;;;;;;5073541;28;20025;-48
2022/08/15 02:30:39;;;;;;;8.93;7.35;;;22.50;67.70;;;;;;5074200;28;20047;-49
2022/08/15 02:33:05;;;;;;;11.60;6.50;;;22.50;67.50;;;;;;5071996;28;20024;-47
2022/08/15 02:35:31;;;;;;;10.15;6.88;;;22.50;67.60;;;;;;5074057;28;20027;-47
2022/08/15 02:38:04;;;;;;;7.43;6.28;;;22.50;68.00;;;;;;5072134;28;20028;-47
2022/08/15 02:40:30;;;;;;;8.60;6.65;;;22.50;67.70;;;;;;5073587;28;20020;-47
2022/08/15 02:42:59;;;;;;;7.97;6.35;;;22.50;67.30;;;;;;5073198;28;20035;-48
2022/08/15 02:45:25;;;;;;;8.63;6.30;;;22.60;66.80;;;;;;5073207;28;20020;-48
2022/08/15 02:47:52;;;;;;;9.18;6.25;;;22.70;66.50;;;;;;5073296;28;20366;-47
2022/08/15 02:50:19;;;;;;;10.98;5.97;;;22.70;65.60;;;;;;5073212;28;20024;-49
2022/08/15 02:52:48;;;;;;;8.07;5.68;;;22.70;65.70;;;;;;5073373;28;20539;-49
2022/08/15 02:55:14;;;;;;;6.68;5.57;;;22.70;65.50;;;;;;5072846;28;20029;-46
2022/08/15 02:57:40;;;;;;;8.10;6.40;;;22.80;64.90;;;;;;5073159;28;20027;-47
2022/08/15 03:00:15;;;;;;;8.20;6.45;;;22.70;64.90;;;;;;5072912;28;20021;-48
2022/08/15 03:02:57;;;;;;;9.43;6.75;;;22.70;64.30;;;;;;5073267;28;20107;-48
2022/08/15 03:05:26;;;;;;;8.73;6.18;;;22.70;63.90;;;;;;5072872;28;20024;-48
2022/08/15 03:07:52;;;;;;;6.22;5.63;;;22.70;63.80;;;;;;5073133;28;20495;-48
2022/08/15 03:10:19;;;;;;;11.73;6.18;;;22.70;63.70;;;;;;5073256;28;20059;-46
2022/08/15 03:12:53;;;;;;;10.50;6.35;;;22.80;63.20;;;;;;5072927;28;20514;-46
2022/08/15 03:15:20;;;;;;;8.32;5.90;;;22.80;62.60;;;;;;5071287;28;20094;-46
2022/08/15 03:17:46;;;;;;;9.18;5.57;;;22.80;62.00;;;;;;5072754;28;20021;-47
2022/08/15 03:20:12;;;;;;;9.02;6.45;;;22.80;61.90;;;;;;5073001;28;20028;-46
2022/08/15 03:22:43;;;;;;;7.50;5.57;;;22.70;62.50;;;;;;5073033;28;20403;-48
2022/08/15 03:25:09;;;;;;;9.70;6.95;;;22.80;62.80;;;;;;5072952;28;20032;-47
2022/08/15 03:27:35;;;;;;;6.80;6.07;;;22.60;62.90;;;;;;5072708;28;20028;-50
2022/08/15 03:30:02;;;;;;;8.77;6.75;;;22.60;63.30;;;;;;5072622;28;20077;-49
2022/08/15 03:32:29;;;;;;;9.10;5.95;;;22.60;63.20;;;;;;5072529;28;20135;-48
2022/08/15 03:34:54;;;;;;;7.25;5.80;;;22.70;62.00;;;;;;5072863;28;20365;-47
2022/08/15 03:37:20;;;;;;;7.32;6.20;;;22.70;61.90;;;;;;5076237;28;20031;-50
2022/08/15 03:39:46;;;;;;;11.07;6.18;;;22.80;61.00;;;;;;5074867;28;20036;-47
2022/08/15 03:42:11;;;;;;;7.20;5.60;;;22.80;60.40;;;;;;5076496;28;20433;-48
2022/08/15 03:44:37;;;;;;;7.70;4.97;;;22.80;59.70;;;;;;5076451;28;20024;-46
2022/08/15 03:47:03;;;;;;;8.07;5.60;;;22.80;59.90;;;;;;5076398;28;20032;-48
2022/08/15 03:49:29;;;;;;;11.77;5.38;;;22.80;59.70;;;;;;5076689;28;20031;-47
2022/08/15 03:51:54;;;;;;;6.40;4.78;;;22.80;59.20;;;;;;5076579;28;20487;-47
2022/08/15 03:54:20;;;;;;;11.05;5.40;;;22.80;59.30;;;;;;5076547;28;20032;-47
2022/08/15 03:56:46;;;;;;;6.38;5.00;;;22.80;59.10;;;;;;5075141;28;20016;-47
2022/08/15 03:59:11;;;;;;;5.15;4.43;;;22.70;59.60;;;;;;5076211;28;20120;-47
2022/08/15 04:01:38;;;;;;;9.27;5.68;;;22.70;59.60;;;;;;5076311;28;20191;-48
2022/08/15 19:12:52;;;;;;;6.35;4.72;;;24.00;63.00;;;;;;5091092;27;20382;-39
2022/08/15 19:15:23;;;;;;;11.15;5.32;;;24.00;62.90;;;;;;5090712;28;20032;-39
2022/08/15 19:18:02;;;;;;;12.10;4.93;;;24.00;62.90;;;;;;5090897;28;20442;-39
2022/08/15 19:20:28;;;;;;;7.78;4.80;;;24.00;62.90;;;;;;5090730;28;20028;-38
2022/08/15 19:22:59;;;;;;;8.52;5.80;;;24.00;62.60;;;;;;5088910;28;20031;-39
2022/08/15 19:25:35;;;;;;;7.30;5.82;;;23.90;62.70;;;;;;5072280;28;20115;-39
2022/08/15 19:28:24;;;;;;;11.25;5.45;;;23.80;62.80;;;;;;5088859;28;20032;-39
2022/08/15 19:30:58;;;;;;;6.20;4.55;;;23.90;62.70;;;;;;5089277;28;20033;-39
2022/08/15 19:33:38;;;;;;;16.08;9.05;;;23.80;62.90;;;;;;5088731;28;20029;-39
2022/08/15 19:36:10;;;;;;;8.82;5.30;;;23.80;63.10;;;;;;5090150;28;20017;-39
2022/08/15 19:39:02;;;;;;;10.70;5.88;;;23.80;62.90;;;;;;5090077;28;20464;-39
2022/08/15 19:41:34;;;;;;;6.72;4.47;;;23.80;62.60;;;;;;5068421;28;20385;-38
2022/08/15 19:44:30;;;;;;;7.85;4.38;;;23.80;62.70;;;;;;5070330;28;20021;-39
2022/08/15 19:47:19;;;;;;;12.68;4.63;;;23.70;62.90;;;;;;5069642;28;20017;-38
2022/08/15 19:52:53;;;;;;;9.20;6.38;;;23.70;62.90;;;;;;5068969;28;20087;-39
2022/08/15 19:55:41;;;;;;;10.23;7.37;;;23.70;63.00;;;;;;5069946;28;20595;-40
2022/08/15 19:58:19;;;;;;;6.45;4.22;;;23.50;63.30;;;;;;5069964;28;20065;-38
2022/08/15 20:00:49;;;;;;;6.45;4.40;;;23.50;63.40;;;;;;5068286;28;20484;-40
2022/08/15 20:03:24;;;;;;;7.30;4.57;;;23.50;63.30;;;;;;5069567;28;20033;-38
2022/08/15 20:06:05;;;;;;;5.82;5.10;;;23.40;63.30;;;;;;5069448;28;20032;-40
2022/08/15 20:08:49;;;;;;;7.13;5.65;;;23.30;63.50;;;;;;5069213;28;20032;-39
2022/08/15 20:11:37;;;;;;;9.25;5.15;;;23.20;63.70;;;;;;5069111;28;20427;-38
2022/08/15 20:14:13;;;;;;;5.00;4.03;;;23.30;63.70;;;;;;5069097;28;20416;-39
2022/08/15 20:16:49;;;;;;;8.45;5.28;;;23.30;63.50;;;;;;5067516;28;20071;-38
2022/08/15 20:19:31;;;;;;;6.05;4.38;;;23.30;63.50;;;;;;5068123;28;20025;-40
2022/08/15 20:22:18;;;;;;;5.78;4.70;;;23.20;63.50;;;;;;5065971;28;20033;-38
2022/08/15 20:25:04;;;;;;;7.80;3.97;;;23.20;63.70;;;;;;5054169;28;20123;-38
2022/08/15 20:27:31;;;;;;;10.50;6.13;;;23.20;63.70;;;;;;5055823;28;20506;-37
2022/08/15 20:30:14;;;;;;;7.60;5.22;;;23.10;63.90;;;;;;5055779;28;20086;-38
2022/08/15 20:32:51;;;;;;;9.68;5.55;;;23.10;64.00;;;;;;5055985;28;20083;-39
2022/08/15 20:35:34;;;;;;;34.67;6.63;;;23.10;63.80;;;;;;5055754;28;20028;-38
2022/08/15 20:38:08;;;;;;;7.35;5.15;;;23.20;63.60;;;;;;5055232;28;20179;-39
2022/08/15 20:41:02;;;;;;;6.20;4.50;;;23.20;63.40;;;;;;5054064;28;20465;-38
2022/08/15 20:43:39;;;;;;;6.68;4.28;;;23.30;63.00;;;;;;5055013;28;20515;-38
2022/08/15 20:46:15;;;;;;;8.13;4.32;;;23.30;62.60;;;;;;5055241;28;20029;-40
2022/08/15 20:48:47;;;;;;;7.10;4.72;;;23.30;62.60;;;;;;5055952;28;20021;-38
2022/08/15 20:51:33;;;;;;;4.90;3.90;;;23.30;62.50;;;;;;5055400;28;20033;-38
2022/08/15 20:53:59;;;;;;;11.60;4.55;;;23.30;62.40;;;;;;5055342;28;20029;-39
2022/08/15 20:56:27;;;;;;;6.28;4.45;;;23.30;62.50;;;;;;5056623;28;20461;-40
2022/08/15 20:58:52;;;;;;;4.28;3.78;;;23.30;62.00;;;;;;5056180;28;20025;-39
2022/08/15 21:01:27;;;;;;;7.30;4.40;;;23.30;61.70;;;;;;5056468;28;20081;-41
2022/08/15 21:04:30;;;;;;;6.60;4.28;;;23.30;61.50;;;;;;5056222;28;20529;-40
2022/08/15 21:07:05;;;;;;;6.13;4.55;;;23.30;61.50;;;;;;5055783;28;20032;-42
2022/08/15 21:09:46;;;;;;;6.70;4.20;;;23.30;61.50;;;;;;5054557;28;20041;-39
2022/08/15 21:12:36;;;;;;;6.78;3.90;;;23.30;61.60;;;;;;5055413;28;20045;-41
2022/08/15 21:15:36;;;;;;;5.45;4.00;;;23.30;61.50;;;;;;5055742;28;20430;-40
2022/08/15 21:18:29;;;;;;;5.85;4.60;;;23.30;61.80;;;;;;5044275;28;20041;-40
2022/08/15 21:21:10;;;;;;;5.75;4.80;;;23.30;61.90;;;;;;5055236;28;20045;-40
2022/08/15 21:23:38;;;;;;;5.40;4.30;;;23.30;61.90;;;;;;5055738;28;20497;-39
2022/08/15 21:26:27;;;;;;;6.05;3.58;;;23.30;62.00;;;;;;5054099;28;20063;-40
2022/08/15 21:29:05;;;;;;;6.82;3.95;;;23.20;62.00;;;;;;5055957;28;20100;-39
2022/08/15 21:31:33;;;;;;;5.68;4.47;;;23.20;62.30;;;;;;5037615;28;20346;-40
2022/08/15 21:34:05;;;;;;;5.32;4.82;;;23.20;62.30;;;;;;5054247;28;20052;-39
2022/08/15 21:36:31;;;;;;;4.47;3.75;;;23.20;62.60;;;;;;5055706;28;20413;-38
2022/08/15 21:39:07;;;;;;;5.78;3.78;;;23.20;62.50;;;;;;5056141;28;20100;-39
2022/08/15 21:41:42;;;;;;;6.68;3.63;;;23.20;62.30;;;;;;5055284;28;20032;-41
2022/08/15 21:44:07;;;;;;;5.55;4.22;;;23.30;62.00;;;;;;5055107;28;20080;-40
2022/08/15 21:46:59;;;;;;;6.95;3.72;;;23.20;62.30;;;;;;5054497;28;20033;-39
2022/08/15 21:49:34;;;;;;;4.95;3.45;;;23.20;62.20;;;;;;5023445;28;20120;-41
2022/08/15 21:52:05;;;;;;;5.45;3.97;;;23.30;62.00;;;;;;5054710;28;20107;-39
2022/08/15 21:54:47;;;;;;;4.55;3.50;;;23.30;61.90;;;;;;5055059;28;20028;-41
2022/08/15 21:57:26;;;;;;;4.45;3.70;;;23.30;61.70;;;;;;5054896;28;20029;-41
2022/08/15 22:00:27;;;;;;;4.75;3.58;;;23.20;62.10;;;;;;5054940;28;20032;-40
2022/08/15 22:02:56;;;;;;;;;;;23.30;61.50;;;;;;4995467;28;20116;-39
2022/08/15 22:05:27;;;;;;;7.57;3.22;;;23.30;61.20;;;;;;5054282;28;19905;-39
2022/08/15 22:07:55;;;;;;;6.45;4.00;;;23.30;61.10;;;;;;5054670;28;20029;-39
2022/08/15 22:10:24;;;;;;;9.93;3.97;;;23.30;60.90;;;;;;5052839;28;20112;-38
2022/08/15 22:12:54;;;;;;;5.53;3.73;;;23.40;60.80;;;;;;5053556;28;20048;-41
2022/08/15 22:15:20;;;;;;;5.00;3.38;;;23.30;60.70;;;;;;5053584;28;20389;-39
2022/08/15 22:17:47;;;;;;;6.72;3.78;;;23.30;60.80;;;;;;5053841;28;20024;-39
2022/08/15 22:20:15;;;;;;;5.55;3.88;;;23.40;60.60;;;;;;5053509;28;20044;-38
2022/08/15 22:22:57;;;;;;;3.63;3.33;;;23.30;61.20;;;;;;5053680;28;20033;-40
2022/08/15 22:25:30;;;;;;;3.13;2.92;;;23.40;60.80;;;;;;5053680;28;20025;-39
2022/08/15 22:27:59;;;;;;;5.80;4.00;;;23.40;60.60;;;;;;5052921;28;20095;-40
2022/08/15 22:30:27;;;;;;;4.45;3.95;;;23.40;60.60;;;;;;5052087;28;20017;-40
2022/08/15 22:32:54;;;;;;;4.78;3.78;;;23.40;60.80;;;;;;5053529;28;20492;-40
2022/08/15 22:35:20;;;;;;;3.65;3.35;;;23.30;60.90;;;;;;5052037;28;20032;-39
2022/08/15 22:37:47;;;;;;;8.82;3.67;;;23.30;61.10;;;;;;5053430;28;20021;-40
2022/08/15 22:40:16;;;;;;;4.68;3.25;;;23.30;61.20;;;;;;5053118;28;20475;-41
2022/08/15 22:42:45;;;;;;;5.40;3.47;;;23.20;61.40;;;;;;5053187;28;20029;-39
2022/08/15 22:45:22;;;;;;;6.82;3.55;;;23.20;61.40;;;;;;5052946;28;20444;-39
2022/08/15 22:47:48;;;;;;;5.25;3.70;;;23.20;61.60;;;;;;5053822;28;20029;-39
2022/08/15 22:50:14;;;;;;;9.57;3.60;;;23.20;61.60;;;;;;5053001;28;20423;-39
2022/08/15 22:52:40;;;;;;;4.90;3.38;;;23.20;61.50;;;;;;5053634;28;20024;-39
2022/08/15 22:55:29;;;;;;;4.75;3.60;;;23.20;61.50;;;;;;5051717;28;20584;-39
2022/08/15 22:57:56;;;;;;;6.38;3.83;;;23.20;61.60;;;;;;5053585;28;20096;-38
2022/08/15 23:00:28;;;;;;;4.32;3.75;;;23.10;61.80;;;;;;5052914;28;20097;-44
2022/08/15 23:02:55;;;;;;;5.70;3.20;;;23.00;62.20;;;;;;5053403;28;20063;-38
2022/08/15 23:05:44;;;;;;;6.20;4.10;;;22.90;62.50;;;;;;5051707;28;20388;-40
2022/08/15 23:08:29;;;;;;;4.55;3.67;;;22.90;62.80;;;;;;5051730;28;20025;-41
2022/08/15 23:11:18;;;;;;;10.77;4.43;;;22.90;62.70;;;;;;5051859;28;20049;-40
2022/08/15 23:13:50;;;;;;;6.00;4.43;;;22.80;63.20;;;;;;5052774;28;20026;-38
2022/08/15 23:16:34;;;;;;;13.55;4.13;;;22.90;63.10;;;;;;5052934;28;20023;-40
2022/08/15 23:19:05;;;;;;;6.38;4.70;;;22.90;63.10;;;;;;5053210;28;20013;-39
2022/08/15 23:21:33;;;;;;;7.28;5.05;;;22.90;63.30;;;;;;5052889;28;20112;-40
2022/08/15 23:24:05;;;;;;;7.38;4.30;;;22.80;63.50;;;;;;5052794;28;20021;-40
2022/08/15 23:26:32;;;;;;;8.18;4.20;;;22.90;63.30;;;;;;5051509;28;20059;-39
2022/08/15 23:29:08;;;;;;;7.05;3.95;;;22.80;63.50;;;;;;5052735;28;20052;-39
2022/08/15 23:31:37;;;;;;;4.20;3.80;;;22.80;63.60;;;;;;5052836;28;20036;-40
2022/08/15 23:34:05;;;;;;;3.85;3.45;;;22.80;63.40;;;;;;5052921;28;20029;-39
2022/08/15 23:36:46;;;;;;;10.20;4.40;;;22.80;63.70;;;;;;5052708;28;20024;-41
2022/08/15 23:39:22;;;;;;;5.65;3.72;;;22.70;63.90;;;;;;5052602;28;20043;-39
2022/08/15 23:42:02;;;;;;;4.40;3.33;;;22.60;64.20;;;;;;5035212;28;20064;-39
2022/08/15 23:44:28;;;;;;;3.92;3.30;;;22.50;64.30;;;;;;5052922;28;20408;-41
2022/08/15 23:46:54;;;;;;;6.25;3.22;;;22.50;64.50;;;;;;5052995;28;20029;-38
2022/08/15 23:49:19;;;;;;;4.68;3.70;;;22.40;64.80;;;;;;5051522;28;20078;-39
2022/08/15 23:51:46;;;;;;;4.63;3.03;;;22.40;64.70;;;;;;5052487;28;20025;-39
2022/08/15 23:54:15;;;;;;;4.05;3.55;;;22.40;65.00;;;;;;5052840;28;20047;-41
2022/08/15 23:56:41;;;;;;;4.60;3.20;;;22.30;64.70;;;;;;5052688;28;20376;-38
2022/08/15 23:59:07;;;;;;;6.82;3.78;;;22.40;64.60;;;;;;5055935;28;20021;-39
